sensor_id;sensor_type;location;lat;lon;timestamp;P1;durP1;ratioP1;P2;durP2;ratioP2
10458;SDS011;5277;48.722;8.736;2022-08-05T00:01:00;3.38;;;2.20;;
10458;SDS011;5277;48.722;8.736;2022-08-05T00:03:26;6.22;;;2.85;;
10458;SDS011;5277;48.722;8.736;2022-08-05T00:05:52;2.30;;;1.90;;
10458;SDS011;5277;48.722;8.736;2022-08-05T00:08:18;2.08;;;1.88;;
10458;SDS011;5277;48.722;8.736;2022-08-05T00:10:44;3.30;;;2.15;;
10458;SDS011;5277;48.722;8.736;2022-08-05T00:13:10;2.55;;;2.03;;
10458;SDS011;5277;48.722;8.736;2022-08-05T00:15:35;2.88;;;2.25;;
10458;SDS011;5277;48.722;8.736;2022-08-05T00:18:01;2.55;;;2.35;;
10458;SDS011;5277;48.722;8.736;2022-08-05T00:20:27;2.75;;;2.38;;
10458;SDS011;5277;48.722;8.736;2022-08-05T00:22:53;2.47;;;2.17;;
10458;SDS011;5277;48.722;8.736;2022-08-05T00:25:18;2.75;;;2.25;;
10458;SDS011;5277;48.722;8.736;2022-08-05T00:27:44;2.63;;;2.05;;
10458;SDS011;5277;48.722;8.736;2022-08-05T00:30:10;3.80;;;2.03;;
10458;SDS011;5277;48.722;8.736;2022-08-05T00:32:36;2.03;;;1.60;;
10458;SDS011;5277;48.722;8.736;2022-08-05T00:35:01;2.35;;;2.15;;
10458;SDS011;5277;48.722;8.736;2022-08-05T00:37:27;3.15;;;2.22;;
10458;SDS011;5277;48.722;8.736;2022-08-05T00:39:53;2.33;;;2.08;;
10458;SDS011;5277;48.722;8.736;2022-08-05T00:42:32;2.53;;;2.00;;
10458;SDS011;5277;48.722;8.736;2022-08-05T00:45:04;2.72;;;2.17;;
10458;SDS011;5277;48.722;8.736;2022-08-05T00:47:31;3.35;;;2.30;;
10458;SDS011;5277;48.722;8.736;2022-08-05T00:49:57;2.30;;;2.10;;
10458;SDS011;5277;48.722;8.736;2022-08-05T00:52:23;3.13;;;2.50;;
10458;SDS011;5277;48.722;8.736;2022-08-05T00:54:48;2.22;;;2.03;;
10458;SDS011;5277;48.722;8.736;2022-08-05T00:57:14;2.15;;;1.95;;
10458;SDS011;5277;48.722;8.736;2022-08-05T00:59:40;3.85;;;2.30;;
10458;SDS011;5277;48.722;8.736;2022-08-05T01:02:06;2.08;;;1.88;;
10458;SDS011;5277;48.722;8.736;2022-08-05T01:04:31;5.18;;;2.45;;
10458;SDS011;5277;48.722;8.736;2022-08-05T01:06:57;4.90;;;2.22;;
10458;SDS011;5277;48.722;8.736;2022-08-05T01:09:23;3.63;;;2.10;;
10458;SDS011;5277;48.722;8.736;2022-08-05T01:11:49;2.58;;;2.20;;
10458;SDS011;5277;48.722;8.736;2022-08-05T01:14:39;4.78;;;2.30;;
10458;SDS011;5277;48.722;8.736;2022-08-05T01:17:13;2.50;;;2.20;;
10458;SDS011;5277;48.722;8.736;2022-08-05T01:19:54;3.28;;;2.22;;
10458;SDS011;5277;48.722;8.736;2022-08-05T01:33:51;5.72;;;2.20;;
10458;SDS011;5277;48.722;8.736;2022-08-05T01:36:19;2.20;;;2.00;;
10458;SDS011;5277;48.722;8.736;2022-08-05T01:38:49;5.53;;;1.90;;
10458;SDS011;5277;48.722;8.736;2022-08-05T01:41:15;5.13;;;2.60;;
10458;SDS011;5277;48.722;8.736;2022-08-05T01:43:45;2.45;;;2.22;;
10458;SDS011;5277;48.722;8.736;2022-08-05T01:46:12;3.78;;;2.63;;
10458;SDS011;5277;48.722;8.736;2022-08-05T01:48:38;4.50;;;2.35;;
10458;SDS011;5277;48.722;8.736;2022-08-05T01:51:05;4.28;;;2.17;;
10458;SDS011;5277;48.722;8.736;2022-08-05T01:53:33;4.55;;;2.20;;
10458;SDS011;5277;48.722;8.736;2022-08-05T01:56:00;2.47;;;2.13;;
10458;SDS011;5277;48.722;8.736;2022-08-05T01:58:27;2.47;;;2.28;;
10458;SDS011;5277;48.722;8.736;2022-08-05T02:00:54;2.97;;;2.38;;
10458;SDS011;5277;48.722;8.736;2022-08-05T02:03:36;3.30;;;2.03;;
10458;SDS011;5277;48.722;8.736;2022-08-05T02:06:04;2.95;;;2.60;;
10458;SDS011;5277;48.722;8.736;2022-08-05T02:08:32;2.75;;;2.30;;
10458;SDS011;5277;48.722;8.736;2022-08-05T02:11:01;2.45;;;2.25;;
10458;SDS011;5277;48.722;8.736;2022-08-05T02:13:36;2.40;;;2.20;;
10458;SDS011;5277;48.722;8.736;2022-08-05T02:16:05;8.57;;;2.85;;
10458;SDS011;5277;48.722;8.736;2022-08-05T02:18:42;2.60;;;2.28;;
10458;SDS011;5277;48.722;8.736;2022-08-05T02:21:14;2.78;;;2.25;;
10458;SDS011;5277;48.722;8.736;2022-08-05T02:23:43;4.63;;;2.10;;
10458;SDS011;5277;48.722;8.736;2022-08-05T02:26:12;5.95;;;2.47;;
10458;SDS011;5277;48.722;8.736;2022-08-05T02:28:45;2.92;;;2.42;;
10458;SDS011;5277;48.722;8.736;2022-08-05T02:31:16;2.10;;;1.90;;
10458;SDS011;5277;48.722;8.736;2022-08-05T02:34:01;2.53;;;2.33;;
10458;SDS011;5277;48.722;8.736;2022-08-05T02:36:33;2.40;;;2.20;;
10458;SDS011;5277;48.722;8.736;2022-08-05T02:39:03;2.80;;;2.47;;
10458;SDS011;5277;48.722;8.736;2022-08-05T02:41:31;2.20;;;2.00;;
10458;SDS011;5277;48.722;8.736;2022-08-05T02:43:58;2.60;;;2.40;;
10458;SDS011;5277;48.722;8.736;2022-08-05T02:46:25;2.38;;;1.95;;
10458;SDS011;5277;48.722;8.736;2022-08-05T02:48:52;3.72;;;2.38;;
10458;SDS011;5277;48.722;8.736;2022-08-05T02:51:19;3.38;;;2.30;;
10458;SDS011;5277;48.722;8.736;2022-08-05T02:53:46;3.25;;;2.53;;
10458;SDS011;5277;48.722;8.736;2022-08-05T02:56:13;2.47;;;2.25;;
10458;SDS011;5277;48.722;8.736;2022-08-05T02:58:41;4.47;;;2.50;;
10458;SDS011;5277;48.722;8.736;2022-08-05T03:01:16;4.82;;;2.22;;
10458;SDS011;5277;48.722;8.736;2022-08-05T03:03:43;2.75;;;2.33;;
10458;SDS011;5277;48.722;8.736;2022-08-05T03:06:13;3.17;;;2.35;;
10458;SDS011;5277;48.722;8.736;2022-08-05T03:08:40;2.25;;;2.05;;
10458;SDS011;5277;48.722;8.736;2022-08-05T03:11:20;2.47;;;2.17;;
10458;SDS011;5277;48.722;8.736;2022-08-05T03:13:47;2.53;;;2.10;;
10458;SDS011;5277;48.722;8.736;2022-08-05T03:16:13;2.85;;;2.55;;
10458;SDS011;5277;48.722;8.736;2022-08-05T03:18:39;5.25;;;2.85;;
10458;SDS011;5277;48.722;8.736;2022-08-05T03:21:05;3.00;;;2.30;;
10458;SDS011;5277;48.722;8.736;2022-08-05T03:23:32;2.97;;;2.35;;
10458;SDS011;5277;48.722;8.736;2022-08-05T03:25:58;3.08;;;2.38;;
10458;SDS011;5277;48.722;8.736;2022-08-05T03:28:25;2.65;;;2.33;;
10458;SDS011;5277;48.722;8.736;2022-08-05T03:30:52;2.80;;;2.17;;
10458;SDS011;5277;48.722;8.736;2022-08-05T03:33:18;4.28;;;2.28;;
10458;SDS011;5277;48.722;8.736;2022-08-05T03:35:45;2.83;;;2.15;;
10458;SDS011;5277;48.722;8.736;2022-08-05T03:38:12;2.80;;;2.53;;
10458;SDS011;5277;48.722;8.736;2022-08-05T03:40:42;4.15;;;2.10;;
10458;SDS011;5277;48.722;8.736;2022-08-05T03:43:10;2.50;;;2.30;;
10458;SDS011;5277;48.722;8.736;2022-08-05T03:45:36;3.60;;;2.50;;
10458;SDS011;5277;48.722;8.736;2022-08-05T03:48:02;4.13;;;2.50;;
10458;SDS011;5277;48.722;8.736;2022-08-05T03:50:40;4.47;;;2.20;;
10458;SDS011;5277;48.722;8.736;2022-08-05T03:53:13;2.67;;;2.35;;
10458;SDS011;5277;48.722;8.736;2022-08-05T03:55:48;4.50;;;2.50;;
10458;SDS011;5277;48.722;8.736;2022-08-05T03:58:17;2.67;;;2.47;;
10458;SDS011;5277;48.722;8.736;2022-08-05T04:00:46;3.28;;;2.70;;
10458;SDS011;5277;48.722;8.736;2022-08-05T04:03:13;2.60;;;2.40;;
10458;SDS011;5277;48.722;8.736;2022-08-05T04:05:41;2.58;;;2.38;;
10458;SDS011;5277;48.722;8.736;2022-08-05T04:08:09;5.40;;;2.47;;
10458;SDS011;5277;48.722;8.736;2022-08-05T04:10:36;6.70;;;2.67;;
10458;SDS011;5277;48.722;8.736;2022-08-05T04:13:02;2.88;;;2.40;;
10458;SDS011;5277;48.722;8.736;2022-08-05T04:15:28;3.47;;;2.47;;
10458;SDS011;5277;48.722;8.736;2022-08-05T04:17:54;2.70;;;2.40;;
10458;SDS011;5277;48.722;8.736;2022-08-05T04:20:20;3.78;;;2.20;;
10458;SDS011;5277;48.722;8.736;2022-08-05T04:22:47;3.00;;;2.40;;
10458;SDS011;5277;48.722;8.736;2022-08-05T04:25:14;2.58;;;2.20;;
10458;SDS011;5277;48.722;8.736;2022-08-05T04:27:40;3.28;;;2.42;;
10458;SDS011;5277;48.722;8.736;2022-08-05T04:30:06;2.60;;;2.30;;
10458;SDS011;5277;48.722;8.736;2022-08-05T04:32:33;2.92;;;2.55;;
10458;SDS011;5277;48.722;8.736;2022-08-05T04:35:02;2.63;;;2.40;;
10458;SDS011;5277;48.722;8.736;2022-08-05T04:37:31;3.60;;;2.72;;
10458;SDS011;5277;48.722;8.736;2022-08-05T04:39:57;10.25;;;2.80;;
10458;SDS011;5277;48.722;8.736;2022-08-05T04:42:23;3.38;;;2.50;;
10458;SDS011;5277;48.722;8.736;2022-08-05T04:44:49;4.72;;;2.38;;
10458;SDS011;5277;48.722;8.736;2022-08-05T04:47:15;3.90;;;2.40;;
10458;SDS011;5277;48.722;8.736;2022-08-05T04:49:40;2.40;;;2.20;;
10458;SDS011;5277;48.722;8.736;2022-08-05T04:52:06;3.15;;;2.58;;
10458;SDS011;5277;48.722;8.736;2022-08-05T04:54:32;4.93;;;2.50;;
10458;SDS011;5277;48.722;8.736;2022-08-05T04:56:58;2.88;;;2.47;;
10458;SDS011;5277;48.722;8.736;2022-08-05T04:59:23;4.22;;;2.67;;
10458;SDS011;5277;48.722;8.736;2022-08-05T05:01:49;4.93;;;2.90;;
10458;SDS011;5277;48.722;8.736;2022-08-05T05:04:16;4.60;;;3.05;;
10458;SDS011;5277;48.722;8.736;2022-08-05T05:06:42;3.45;;;2.53;;
10458;SDS011;5277;48.722;8.736;2022-08-05T05:09:09;3.90;;;2.67;;
10458;SDS011;5277;48.722;8.736;2022-08-05T05:11:35;2.80;;;2.60;;
10458;SDS011;5277;48.722;8.736;2022-08-05T05:14:01;3.80;;;2.50;;
10458;SDS011;5277;48.722;8.736;2022-08-05T05:16:27;3.05;;;2.70;;
10458;SDS011;5277;48.722;8.736;2022-08-05T05:18:53;5.55;;;2.85;;
10458;SDS011;5277;48.722;8.736;2022-08-05T05:21:19;4.28;;;3.00;;
10458;SDS011;5277;48.722;8.736;2022-08-05T05:23:45;5.05;;;2.80;;
10458;SDS011;5277;48.722;8.736;2022-08-05T05:26:10;4.57;;;3.05;;
10458;SDS011;5277;48.722;8.736;2022-08-05T05:28:36;5.30;;;2.80;;
10458;SDS011;5277;48.722;8.736;2022-08-05T05:31:02;3.42;;;2.58;;
10458;SDS011;5277;48.722;8.736;2022-08-05T05:33:27;7.85;;;2.70;;
10458;SDS011;5277;48.722;8.736;2022-08-05T05:35:53;7.72;;;2.90;;
10458;SDS011;5277;48.722;8.736;2022-08-05T05:38:19;5.03;;;3.00;;
10458;SDS011;5277;48.722;8.736;2022-08-05T05:40:44;4.72;;;2.63;;
10458;SDS011;5277;48.722;8.736;2022-08-05T05:43:10;5.03;;;2.83;;
10458;SDS011;5277;48.722;8.736;2022-08-05T05:45:36;6.95;;;3.13;;
10458;SDS011;5277;48.722;8.736;2022-08-05T05:48:01;3.05;;;2.70;;
10458;SDS011;5277;48.722;8.736;2022-08-05T05:50:31;7.00;;;3.08;;
10458;SDS011;5277;48.722;8.736;2022-08-05T05:52:57;6.20;;;2.85;;
10458;SDS011;5277;48.722;8.736;2022-08-05T05:55:22;6.75;;;3.25;;
10458;SDS011;5277;48.722;8.736;2022-08-05T05:57:48;4.32;;;2.83;;
10458;SDS011;5277;48.722;8.736;2022-08-05T06:00:15;6.25;;;2.90;;
10458;SDS011;5277;48.722;8.736;2022-08-05T06:02:42;3.33;;;2.75;;
10458;SDS011;5277;48.722;8.736;2022-08-05T06:05:12;11.77;;;3.20;;
10458;SDS011;5277;48.722;8.736;2022-08-05T06:07:39;3.22;;;2.50;;
10458;SDS011;5277;48.722;8.736;2022-08-05T06:10:06;8.40;;;3.00;;
10458;SDS011;5277;48.722;8.736;2022-08-05T06:12:38;5.22;;;3.03;;
10458;SDS011;5277;48.722;8.736;2022-08-05T06:15:05;4.57;;;2.90;;
10458;SDS011;5277;48.722;8.736;2022-08-05T06:17:31;3.45;;;3.00;;
10458;SDS011;5277;48.722;8.736;2022-08-05T06:19:58;9.20;;;3.40;;
10458;SDS011;5277;48.722;8.736;2022-08-05T06:22:24;7.07;;;3.13;;
10458;SDS011;5277;48.722;8.736;2022-08-05T06:24:54;7.00;;;3.25;;
10458;SDS011;5277;48.722;8.736;2022-08-05T06:27:20;3.30;;;3.00;;
10458;SDS011;5277;48.722;8.736;2022-08-05T06:29:46;5.75;;;3.08;;
10458;SDS011;5277;48.722;8.736;2022-08-05T06:32:11;7.03;;;3.63;;
10458;SDS011;5277;48.722;8.736;2022-08-05T06:34:37;5.43;;;3.72;;
10458;SDS011;5277;48.722;8.736;2022-08-05T06:37:04;16.95;;;4.13;;
10458;SDS011;5277;48.722;8.736;2022-08-05T06:39:30;8.18;;;4.32;;
10458;SDS011;5277;48.722;8.736;2022-08-05T06:41:56;8.63;;;5.22;;
10458;SDS011;5277;48.722;8.736;2022-08-05T06:44:23;6.53;;;4.13;;
10458;SDS011;5277;48.722;8.736;2022-08-05T06:46:48;5.88;;;3.90;;
10458;SDS011;5277;48.722;8.736;2022-08-05T06:49:14;5.00;;;2.90;;
10458;SDS011;5277;48.722;8.736;2022-08-05T06:51:39;5.78;;;3.13;;
10458;SDS011;5277;48.722;8.736;2022-08-05T06:54:05;10.52;;;3.35;;
10458;SDS011;5277;48.722;8.736;2022-08-05T06:56:31;6.93;;;3.05;;
10458;SDS011;5277;48.722;8.736;2022-08-05T06:58:57;3.08;;;2.47;;
10458;SDS011;5277;48.722;8.736;2022-08-05T07:01:23;3.05;;;1.98;;
10458;SDS011;5277;48.722;8.736;2022-08-05T07:03:48;7.35;;;2.00;;
10458;SDS011;5277;48.722;8.736;2022-08-05T07:06:16;2.08;;;1.75;;
10458;SDS011;5277;48.722;8.736;2022-08-05T07:08:42;3.05;;;1.80;;
10458;SDS011;5277;48.722;8.736;2022-08-05T07:11:09;2.72;;;1.83;;
10458;SDS011;5277;48.722;8.736;2022-08-05T07:13:35;3.47;;;1.65;;
10458;SDS011;5277;48.722;8.736;2022-08-05T07:16:19;2.03;;;1.83;;
10458;SDS011;5277;48.722;8.736;2022-08-05T07:19:03;2.35;;;1.73;;
10458;SDS011;5277;48.722;8.736;2022-08-05T07:21:32;1.92;;;1.77;;
10458;SDS011;5277;48.722;8.736;2022-08-05T07:23:58;2.17;;;1.67;;
10458;SDS011;5277;48.722;8.736;2022-08-05T07:26:24;1.90;;;1.70;;
10458;SDS011;5277;48.722;8.736;2022-08-05T07:28:50;1.90;;;1.70;;
10458;SDS011;5277;48.722;8.736;2022-08-05T07:31:16;2.30;;;2.00;;
10458;SDS011;5277;48.722;8.736;2022-08-05T07:33:42;2.63;;;1.90;;
10458;SDS011;5277;48.722;8.736;2022-08-05T07:36:08;2.03;;;1.80;;
10458;SDS011;5277;48.722;8.736;2022-08-05T07:38:35;3.15;;;1.70;;
10458;SDS011;5277;48.722;8.736;2022-08-05T07:41:04;4.40;;;1.75;;
10458;SDS011;5277;48.722;8.736;2022-08-05T07:43:33;3.08;;;1.67;;
10458;SDS011;5277;48.722;8.736;2022-08-05T07:45:58;2.70;;;1.88;;
10458;SDS011;5277;48.722;8.736;2022-08-05T07:48:24;3.25;;;1.90;;
10458;SDS011;5277;48.722;8.736;2022-08-05T07:50:50;2.40;;;2.00;;
10458;SDS011;5277;48.722;8.736;2022-08-05T07:53:16;4.30;;;2.00;;
10458;SDS011;5277;48.722;8.736;2022-08-05T07:55:42;1.70;;;1.60;;
10458;SDS011;5277;48.722;8.736;2022-08-05T07:58:08;2.85;;;1.73;;
10458;SDS011;5277;48.722;8.736;2022-08-05T08:00:33;1.70;;;1.60;;
10458;SDS011;5277;48.722;8.736;2022-08-05T08:02:59;4.65;;;1.90;;
10458;SDS011;5277;48.722;8.736;2022-08-05T08:05:25;3.58;;;1.67;;
10458;SDS011;5277;48.722;8.736;2022-08-05T08:07:52;2.40;;;2.00;;
10458;SDS011;5277;48.722;8.736;2022-08-05T08:10:19;1.60;;;1.50;;
10458;SDS011;5277;48.722;8.736;2022-08-05T08:12:46;2.50;;;1.60;;
10458;SDS011;5277;48.722;8.736;2022-08-05T08:15:12;2.10;;;1.60;;
10458;SDS011;5277;48.722;8.736;2022-08-05T08:17:37;3.40;;;1.70;;
10458;SDS011;5277;48.722;8.736;2022-08-05T08:20:03;4.38;;;2.00;;
10458;SDS011;5277;48.722;8.736;2022-08-05T08:22:32;3.15;;;2.13;;
10458;SDS011;5277;48.722;8.736;2022-08-05T08:24:58;2.00;;;1.80;;
10458;SDS011;5277;48.722;8.736;2022-08-05T08:27:24;2.58;;;1.52;;
10458;SDS011;5277;48.722;8.736;2022-08-05T08:29:50;3.33;;;1.80;;
10458;SDS011;5277;48.722;8.736;2022-08-05T08:32:17;4.15;;;1.90;;
10458;SDS011;5277;48.722;8.736;2022-08-05T08:34:46;2.25;;;1.77;;
10458;SDS011;5277;48.722;8.736;2022-08-05T08:45:49;1.85;;;1.63;;
10458;SDS011;5277;48.722;8.736;2022-08-05T09:04:32;1.98;;;1.67;;
10458;SDS011;5277;48.722;8.736;2022-08-05T09:20:23;2.05;;;1.77;;
10458;SDS011;5277;48.722;8.736;2022-08-05T09:32:02;2.08;;;1.80;;
10458;SDS011;5277;48.722;8.736;2022-08-05T09:34:47;2.88;;;1.60;;
10458;SDS011;5277;48.722;8.736;2022-08-05T09:37:24;3.90;;;1.85;;
10458;SDS011;5277;48.722;8.736;2022-08-05T09:39:54;3.55;;;2.00;;
10458;SDS011;5277;48.722;8.736;2022-08-05T09:42:20;1.90;;;1.75;;
10458;SDS011;5277;48.722;8.736;2022-08-05T09:44:47;2.00;;;1.67;;
10458;SDS011;5277;48.722;8.736;2022-08-05T09:47:14;2.08;;;1.77;;
10458;SDS011;5277;48.722;8.736;2022-08-05T09:49:46;1.70;;;1.60;;
10458;SDS011;5277;48.722;8.736;2022-08-05T09:52:23;2.17;;;1.92;;
10458;SDS011;5277;48.722;8.736;2022-08-05T09:54:55;2.13;;;1.88;;
10458;SDS011;5277;48.722;8.736;2022-08-05T09:57:54;2.25;;;2.05;;
10458;SDS011;5277;48.722;8.736;2022-08-05T10:00:14;2.65;;;1.88;;
10458;SDS011;5277;48.722;8.736;2022-08-05T10:02:48;4.10;;;1.70;;
10458;SDS011;5277;48.722;8.736;2022-08-05T10:05:23;2.22;;;1.90;;
10458;SDS011;5277;48.722;8.736;2022-08-05T10:12:50;2.25;;;1.83;;
10458;SDS011;5277;48.722;8.736;2022-08-05T10:15:28;1.73;;;1.63;;
10458;SDS011;5277;48.722;8.736;2022-08-05T10:18:03;3.10;;;1.92;;
10458;SDS011;5277;48.722;8.736;2022-08-05T10:23:03;2.13;;;1.88;;
10458;SDS011;5277;48.722;8.736;2022-08-05T10:25:34;2.78;;;2.10;;
10458;SDS011;5277;48.722;8.736;2022-08-05T10:28:00;2.30;;;2.10;;
10458;SDS011;5277;48.722;8.736;2022-08-05T10:30:26;2.13;;;1.88;;
10458;SDS011;5277;48.722;8.736;2022-08-05T10:32:52;2.20;;;1.88;;
10458;SDS011;5277;48.722;8.736;2022-08-05T10:35:19;2.08;;;1.98;;
10458;SDS011;5277;48.722;8.736;2022-08-05T10:37:44;2.10;;;2.00;;
10458;SDS011;5277;48.722;8.736;2022-08-05T10:40:19;2.53;;;2.10;;
10458;SDS011;5277;48.722;8.736;2022-08-05T10:42:49;2.15;;;1.95;;
10458;SDS011;5277;48.722;8.736;2022-08-05T10:45:25;3.05;;;2.17;;
10458;SDS011;5277;48.722;8.736;2022-08-05T10:51:03;2.88;;;2.13;;
10458;SDS011;5277;48.722;8.736;2022-08-05T10:56:16;2.08;;;1.98;;
10458;SDS011;5277;48.722;8.736;2022-08-05T10:58:48;3.97;;;2.30;;
10458;SDS011;5277;48.722;8.736;2022-08-05T11:01:35;3.17;;;2.20;;
10458;SDS011;5277;48.722;8.736;2022-08-05T11:04:13;2.22;;;2.03;;
10458;SDS011;5277;48.722;8.736;2022-08-05T11:15:35;2.40;;;2.20;;
10458;SDS011;5277;48.722;8.736;2022-08-05T11:17:40;4.32;;;2.13;;
10458;SDS011;5277;48.722;8.736;2022-08-05T11:20:30;2.15;;;1.95;;
10458;SDS011;5277;48.722;8.736;2022-08-05T11:23:26;4.13;;;2.30;;
10458;SDS011;5277;48.722;8.736;2022-08-05T11:26:01;2.55;;;2.25;;
10458;SDS011;5277;48.722;8.736;2022-08-05T11:28:47;2.55;;;2.35;;
10458;SDS011;5277;48.722;8.736;2022-08-05T11:36:37;2.83;;;2.60;;
10458;SDS011;5277;48.722;8.736;2022-08-05T11:39:16;2.67;;;2.20;;
10458;SDS011;5277;48.722;8.736;2022-08-05T11:42:01;3.78;;;2.60;;
10458;SDS011;5277;48.722;8.736;2022-08-05T11:44:34;3.17;;;2.30;;
10458;SDS011;5277;48.722;8.736;2022-08-05T11:47:02;3.35;;;2.30;;
10458;SDS011;5277;48.722;8.736;2022-08-05T11:49:28;2.72;;;2.28;;
10458;SDS011;5277;48.722;8.736;2022-08-05T11:51:53;2.53;;;2.20;;
10458;SDS011;5277;48.722;8.736;2022-08-05T11:54:23;2.10;;;1.95;;
10458;SDS011;5277;48.722;8.736;2022-08-05T11:57:11;2.00;;;1.80;;
10458;SDS011;5277;48.722;8.736;2022-08-05T11:59:37;2.22;;;2.13;;
10458;SDS011;5277;48.722;8.736;2022-08-05T12:02:04;2.50;;;2.00;;
10458;SDS011;5277;48.722;8.736;2022-08-05T12:04:45;6.05;;;2.28;;
10458;SDS011;5277;48.722;8.736;2022-08-05T12:07:13;4.13;;;2.38;;
10458;SDS011;5277;48.722;8.736;2022-08-05T12:09:43;3.90;;;2.42;;
10458;SDS011;5277;48.722;8.736;2022-08-05T12:12:21;2.97;;;1.98;;
10458;SDS011;5277;48.722;8.736;2022-08-05T12:14:48;4.45;;;2.05;;
10458;SDS011;5277;48.722;8.736;2022-08-05T12:17:14;2.45;;;2.25;;
10458;SDS011;5277;48.722;8.736;2022-08-05T12:19:44;2.47;;;2.28;;
10458;SDS011;5277;48.722;8.736;2022-08-05T12:22:16;2.38;;;2.03;;
10458;SDS011;5277;48.722;8.736;2022-08-05T12:24:44;8.57;;;2.38;;
10458;SDS011;5277;48.722;8.736;2022-08-05T12:27:18;1.92;;;1.80;;
10458;SDS011;5277;48.722;8.736;2022-08-05T12:29:45;3.47;;;2.40;;
10458;SDS011;5277;48.722;8.736;2022-08-05T12:32:21;2.40;;;2.20;;
10458;SDS011;5277;48.722;8.736;2022-08-05T12:34:48;2.30;;;2.10;;
10458;SDS011;5277;48.722;8.736;2022-08-05T12:37:14;5.32;;;2.47;;
10458;SDS011;5277;48.722;8.736;2022-08-05T12:39:40;2.40;;;2.08;;
10458;SDS011;5277;48.722;8.736;2022-08-05T12:42:17;4.90;;;2.10;;
10458;SDS011;5277;48.722;8.736;2022-08-05T12:44:44;3.90;;;2.20;;
10458;SDS011;5277;48.722;8.736;2022-08-05T12:47:10;2.70;;;2.00;;
10458;SDS011;5277;48.722;8.736;2022-08-05T12:49:42;4.82;;;2.10;;
10458;SDS011;5277;48.722;8.736;2022-08-05T12:52:13;2.28;;;2.08;;
10458;SDS011;5277;48.722;8.736;2022-08-05T12:54:40;2.20;;;2.00;;
10458;SDS011;5277;48.722;8.736;2022-08-05T12:57:07;2.50;;;2.30;;
10458;SDS011;5277;48.722;8.736;2022-08-05T12:59:42;3.55;;;2.30;;
10458;SDS011;5277;48.722;8.736;2022-08-05T13:02:24;3.03;;;2.15;;
10458;SDS011;5277;48.722;8.736;2022-08-05T13:04:51;4.25;;;2.10;;
10458;SDS011;5277;48.722;8.736;2022-08-05T13:07:19;2.38;;;2.13;;
10458;SDS011;5277;48.722;8.736;2022-08-05T13:09:56;4.10;;;2.10;;
10458;SDS011;5277;48.722;8.736;2022-08-05T13:12:24;3.65;;;2.13;;
10458;SDS011;5277;48.722;8.736;2022-08-05T13:14:57;5.88;;;2.60;;
10458;SDS011;5277;48.722;8.736;2022-08-05T13:17:25;3.78;;;2.33;;
10458;SDS011;5277;48.722;8.736;2022-08-05T13:22:40;4.10;;;1.73;;
10458;SDS011;5277;48.722;8.736;2022-08-05T13:25:09;6.22;;;2.28;;
10458;SDS011;5277;48.722;8.736;2022-08-05T13:30:09;5.72;;;2.33;;
10458;SDS011;5277;48.722;8.736;2022-08-05T13:32:37;3.90;;;2.00;;
10458;SDS011;5277;48.722;8.736;2022-08-05T13:35:03;7.10;;;1.92;;
10458;SDS011;5277;48.722;8.736;2022-08-05T13:37:30;7.38;;;2.38;;
10458;SDS011;5277;48.722;8.736;2022-08-05T13:39:56;3.35;;;2.10;;
10458;SDS011;5277;48.722;8.736;2022-08-05T13:42:22;5.15;;;2.15;;
10458;SDS011;5277;48.722;8.736;2022-08-05T13:44:52;3.08;;;2.17;;
10458;SDS011;5277;48.722;8.736;2022-08-05T13:47:18;2.83;;;2.50;;
10458;SDS011;5277;48.722;8.736;2022-08-05T13:49:45;4.57;;;2.38;;
10458;SDS011;5277;48.722;8.736;2022-08-05T13:52:12;11.40;;;2.65;;
10458;SDS011;5277;48.722;8.736;2022-08-05T13:54:39;7.70;;;2.40;;
10458;SDS011;5277;48.722;8.736;2022-08-05T13:57:05;2.25;;;2.05;;
10458;SDS011;5277;48.722;8.736;2022-08-05T13:59:31;6.03;;;2.30;;
10458;SDS011;5277;48.722;8.736;2022-08-05T14:01:57;5.57;;;2.20;;
10458;SDS011;5277;48.722;8.736;2022-08-05T14:04:24;4.43;;;2.20;;
10458;SDS011;5277;48.722;8.736;2022-08-05T14:07:09;2.80;;;2.00;;
10458;SDS011;5277;48.722;8.736;2022-08-05T14:09:35;6.85;;;2.30;;
10458;SDS011;5277;48.722;8.736;2022-08-05T14:12:02;3.83;;;2.08;;
10458;SDS011;5277;48.722;8.736;2022-08-05T14:14:28;8.95;;;2.08;;
10458;SDS011;5277;48.722;8.736;2022-08-05T14:16:53;4.15;;;1.98;;
10458;SDS011;5277;48.722;8.736;2022-08-05T14:19:19;6.55;;;2.40;;
10458;SDS011;5277;48.722;8.736;2022-08-05T14:21:45;2.30;;;2.10;;
10458;SDS011;5277;48.722;8.736;2022-08-05T14:24:10;2.78;;;2.00;;
10458;SDS011;5277;48.722;8.736;2022-08-05T14:26:37;10.93;;;2.38;;
10458;SDS011;5277;48.722;8.736;2022-08-05T14:29:03;6.82;;;2.17;;
10458;SDS011;5277;48.722;8.736;2022-08-05T14:31:29;4.15;;;2.20;;
10458;SDS011;5277;48.722;8.736;2022-08-05T14:33:56;3.03;;;2.20;;
10458;SDS011;5277;48.722;8.736;2022-08-05T14:36:24;4.60;;;2.25;;
10458;SDS011;5277;48.722;8.736;2022-08-05T14:38:50;5.10;;;2.38;;
10458;SDS011;5277;48.722;8.736;2022-08-05T14:41:16;10.63;;;3.10;;
10458;SDS011;5277;48.722;8.736;2022-08-05T14:43:42;3.38;;;2.50;;
10458;SDS011;5277;48.722;8.736;2022-08-05T14:46:08;4.00;;;2.75;;
10458;SDS011;5277;48.722;8.736;2022-08-05T14:48:35;6.07;;;2.65;;
10458;SDS011;5277;48.722;8.736;2022-08-05T14:51:00;4.45;;;2.22;;
10458;SDS011;5277;48.722;8.736;2022-08-05T14:53:27;4.13;;;2.22;;
10458;SDS011;5277;48.722;8.736;2022-08-05T14:55:53;2.65;;;2.45;;
10458;SDS011;5277;48.722;8.736;2022-08-05T14:58:18;10.27;;;2.45;;
10458;SDS011;5277;48.722;8.736;2022-08-05T15:00:44;3.78;;;2.42;;
10458;SDS011;5277;48.722;8.736;2022-08-05T15:03:10;3.53;;;2.40;;
10458;SDS011;5277;48.722;8.736;2022-08-05T15:05:35;5.07;;;2.55;;
10458;SDS011;5277;48.722;8.736;2022-08-05T15:08:01;20.98;;;3.63;;
10458;SDS011;5277;48.722;8.736;2022-08-05T15:10:28;11.52;;;2.83;;
10458;SDS011;5277;48.722;8.736;2022-08-05T15:12:54;7.25;;;3.10;;
10458;SDS011;5277;48.722;8.736;2022-08-05T15:15:20;3.85;;;2.50;;
10458;SDS011;5277;48.722;8.736;2022-08-05T15:17:46;7.00;;;3.25;;
10458;SDS011;5277;48.722;8.736;2022-08-05T15:20:12;19.35;;;3.42;;
10458;SDS011;5277;48.722;8.736;2022-08-05T15:22:38;19.63;;;3.40;;
10458;SDS011;5277;48.722;8.736;2022-08-05T15:25:04;10.18;;;2.95;;
10458;SDS011;5277;48.722;8.736;2022-08-05T15:27:30;13.15;;;2.95;;
10458;SDS011;5277;48.722;8.736;2022-08-05T15:29:56;15.50;;;3.03;;
10458;SDS011;5277;48.722;8.736;2022-08-05T15:32:25;4.13;;;2.80;;
10458;SDS011;5277;48.722;8.736;2022-08-05T15:34:51;5.60;;;3.00;;
10458;SDS011;5277;48.722;8.736;2022-08-05T15:37:17;3.45;;;2.55;;
10458;SDS011;5277;48.722;8.736;2022-08-05T15:39:42;3.33;;;2.78;;
10458;SDS011;5277;48.722;8.736;2022-08-05T15:42:08;5.30;;;3.13;;
10458;SDS011;5277;48.722;8.736;2022-08-05T15:44:41;7.38;;;3.28;;
10458;SDS011;5277;48.722;8.736;2022-08-05T15:47:06;4.05;;;3.08;;
10458;SDS011;5277;48.722;8.736;2022-08-05T15:49:33;7.97;;;3.10;;
10458;SDS011;5277;48.722;8.736;2022-08-05T15:51:59;7.40;;;2.83;;
10458;SDS011;5277;48.722;8.736;2022-08-05T15:54:25;3.80;;;3.28;;
10458;SDS011;5277;48.722;8.736;2022-08-05T15:56:50;3.92;;;3.00;;
10458;SDS011;5277;48.722;8.736;2022-08-05T15:59:16;6.05;;;3.15;;
10458;SDS011;5277;48.722;8.736;2022-08-05T16:01:42;6.05;;;3.60;;
10458;SDS011;5277;48.722;8.736;2022-08-05T16:04:11;6.25;;;3.20;;
10458;SDS011;5277;48.722;8.736;2022-08-05T16:06:37;3.70;;;3.17;;
10458;SDS011;5277;48.722;8.736;2022-08-05T16:09:04;7.10;;;3.05;;
10458;SDS011;5277;48.722;8.736;2022-08-05T16:11:29;5.68;;;3.15;;
10458;SDS011;5277;48.722;8.736;2022-08-05T16:13:55;7.18;;;3.30;;
10458;SDS011;5277;48.722;8.736;2022-08-05T16:16:21;3.55;;;2.90;;
10458;SDS011;5277;48.722;8.736;2022-08-05T16:18:46;4.53;;;3.30;;
10458;SDS011;5277;48.722;8.736;2022-08-05T16:21:12;6.53;;;3.38;;
10458;SDS011;5277;48.722;8.736;2022-08-05T16:23:38;4.20;;;3.20;;
10458;SDS011;5277;48.722;8.736;2022-08-05T16:26:04;4.43;;;3.17;;
10458;SDS011;5277;48.722;8.736;2022-08-05T16:28:35;3.15;;;2.85;;
10458;SDS011;5277;48.722;8.736;2022-08-05T16:31:02;3.67;;;3.25;;
10458;SDS011;5277;48.722;8.736;2022-08-05T16:33:29;6.60;;;3.42;;
10458;SDS011;5277;48.722;8.736;2022-08-05T16:35:59;3.20;;;2.90;;
10458;SDS011;5277;48.722;8.736;2022-08-05T16:38:28;4.05;;;3.03;;